Terminal Aerodrome Forecast
Issued by NWS

Current Version | Previous Version | Graphics & Text | Print | Product List | Glossary On
Versions: 1 2 3 4 5 6 7 8 9 10 11 12 13 14 15 16 17 18 19 20 21
000
FTUS41 KRNK 282323
TAFLWB
TAF
KLWB 282323Z 2900/2924 00000KT P6SM SKC
     FM290400 VRB03KT 4SM BR SCT025
     FM290600 00000KT 3SM BR OVC004
     FM291500 11004KT P6SM OVC018
     FM291900 13005KT P6SM BKN040=

USA.gov is the U.S. government's official web portal to all federal, state and local government web resources and services.